createdAt,value
2018-04-12T00:02:02.323Z,40.70
2018-04-12T00:05:06.296Z,41.83
2018-04-12T00:08:10.774Z,42.83
2018-04-12T00:11:13.953Z,44.33
2018-04-12T00:14:17.128Z,44.40
2018-04-12T00:17:21.106Z,46.00
2018-04-12T00:20:24.290Z,45.70
2018-04-12T00:23:27.461Z,45.27
2018-04-12T00:26:30.678Z,47.30
2018-04-12T00:29:33.835Z,51.13
2018-04-12T00:32:37.011Z,48.97
2018-04-12T00:35:40.174Z,49.33
2018-04-12T00:38:44.455Z,48.97
2018-04-12T00:41:47.629Z,58.57
2018-04-12T00:44:50.858Z,58.70
2018-04-12T00:47:54.023Z,73.50
2018-04-12T00:50:57.195Z,89.17
2018-04-12T00:54:06.194Z,84.50
2018-04-12T00:57:09.348Z,81.70
2018-04-12T01:00:12.542Z,58.70
2018-04-12T01:03:16.350Z,59.80
2018-04-12T01:06:20.272Z,66.30
2018-04-12T01:09:23.467Z,62.03
2018-04-12T01:12:26.643Z,88.33
2018-04-12T01:15:29.809Z,101.40
2018-04-12T01:18:33.784Z,71.40
2018-04-12T01:21:36.934Z,68.50
2018-04-12T01:24:40.138Z,77.20
2018-04-12T01:27:43.312Z,60.00
2018-04-12T01:30:46.680Z,68.20
2018-04-12T01:33:49.877Z,61.53
2018-04-12T01:36:53.524Z,65.17
2018-04-12T01:39:57.474Z,62.83
2018-04-12T01:43:00.621Z,70.57
2018-04-12T01:46:04.583Z,68.53
2018-04-12T01:49:07.749Z,68.80
2018-04-12T01:52:10.967Z,62.83
2018-04-12T01:55:14.110Z,63.03
2018-04-12T01:58:17.340Z,56.83
2018-04-12T02:01:20.507Z,60.57
2018-04-12T02:04:24.458Z,62.40
2018-04-12T02:07:28.215Z,62.30
2018-04-12T02:10:32.189Z,63.07
2018-04-12T02:13:35.344Z,64.40
2018-04-12T02:16:38.540Z,66.30
2018-04-12T02:19:41.741Z,69.53
2018-04-12T02:22:45.079Z,68.83
2018-04-12T02:25:48.239Z,65.97
2018-04-12T02:28:51.455Z,64.53
2018-04-12T02:31:54.576Z,64.90
2018-04-12T02:34:57.811Z,65.07
2018-04-12T02:38:02.236Z,66.57
2018-04-12T02:41:05.422Z,70.80
2018-04-12T02:44:09.339Z,69.90
2018-04-12T02:47:12.515Z,71.90
2018-04-12T02:50:16.448Z,72.53
2018-04-12T02:53:19.649Z,74.23
2018-04-12T02:56:22.820Z,67.57
2018-04-12T02:59:26.016Z,67.13
2018-04-12T03:02:29.198Z,65.07
2018-04-12T03:05:32.404Z,71.90
2018-04-12T03:08:36.649Z,78.50
2018-04-12T03:11:39.806Z,84.47
2018-04-12T03:14:42.991Z,69.53
2018-04-12T03:17:46.273Z,74.33
2018-04-12T03:20:50.244Z,75.33
2018-04-12T03:23:53.431Z,76.63
2018-04-12T03:26:56.675Z,75.70
2018-04-12T03:29:59.864Z,72.23
2018-04-12T03:33:03.038Z,74.83
2018-04-12T03:36:06.986Z,78.80
2018-04-12T03:39:10.156Z,72.20
2018-04-12T03:42:13.373Z,69.27
2018-04-12T03:45:16.529Z,70.93
2018-04-12T03:48:19.709Z,76.40
2018-04-12T03:51:22.869Z,75.13
2018-04-12T03:54:26.834Z,79.63
2018-04-12T03:57:30.004Z,75.80
2018-04-12T04:00:33.192Z,74.93
2018-04-12T04:03:36.387Z,76.90
2018-04-12T04:06:39.628Z,75.77
2018-04-12T04:09:42.847Z,82.23
2018-04-12T04:12:47.382Z,74.07
2018-04-12T04:16:03.219Z,79.93
2018-04-12T04:19:18.802Z,76.47
2018-04-12T04:22:21.975Z,78.07
2018-04-12T04:25:25.151Z,78.23
2018-04-12T04:28:28.331Z,77.60
2018-04-12T04:31:31.511Z,77.33
2018-04-12T04:34:34.706Z,84.97
2018-04-12T04:37:37.888Z,82.77
2018-04-12T04:40:41.316Z,75.50
2018-04-12T04:43:45.270Z,85.50
2018-04-12T04:46:48.450Z,81.77
2018-04-12T04:49:51.623Z,82.97
2018-04-12T04:52:54.812Z,82.13
2018-04-12T04:55:58.021Z,75.10
2018-04-12T04:59:01.967Z,75.23
2018-04-12T05:02:05.143Z,79.80
2018-04-12T05:05:08.315Z,78.90
2018-04-12T05:08:11.483Z,79.57
2018-04-12T05:11:15.676Z,80.13
2018-04-12T05:14:18.862Z,74.17
2018-04-12T05:17:22.074Z,88.07
2018-04-12T05:20:25.259Z,82.40
2018-04-12T05:23:29.335Z,73.73
2018-04-12T05:26:32.516Z,68.23
2018-04-12T05:29:35.816Z,74.43
2018-04-12T05:32:39.970Z,67.97
2018-04-12T05:35:43.981Z,71.87
2018-04-12T05:38:47.153Z,75.03
2018-04-12T05:41:50.374Z,68.83
2018-04-12T05:44:53.528Z,68.03
2018-04-12T05:47:57.475Z,73.70
2018-04-12T05:51:00.674Z,72.23
2018-04-12T05:54:04.752Z,59.53
2018-04-12T05:57:08.675Z,68.07
2018-04-12T06:00:11.864Z,73.90
2018-04-12T06:03:15.095Z,76.03
2018-04-12T06:06:18.282Z,70.47
2018-04-12T06:09:21.454Z,72.47
2018-04-12T06:12:24.640Z,72.37
2018-04-12T06:15:27.817Z,78.87
2018-04-12T06:18:31.009Z,71.80
2018-04-12T06:21:34.948Z,71.03
2018-04-12T06:24:38.135Z,62.03
2018-04-12T06:27:41.480Z,66.60
2018-04-12T06:30:44.705Z,72.27
2018-04-12T06:33:48.681Z,69.73
2018-04-12T06:36:51.878Z,62.60
2018-04-12T06:39:55.023Z,64.40
2018-04-12T06:42:58.235Z,60.03
2018-04-12T06:46:01.422Z,69.03
2018-04-12T06:49:05.363Z,58.27
2018-04-12T06:52:08.509Z,53.30
2018-04-12T06:55:12.004Z,65.10
2018-04-12T06:58:15.930Z,67.00
2018-04-12T07:01:19.133Z,71.13
2018-04-12T07:04:22.320Z,70.47
2018-04-12T07:07:25.503Z,70.30
2018-04-12T07:10:28.701Z,72.70
2018-04-12T07:13:31.928Z,59.37
2018-04-12T07:16:35.100Z,62.93
2018-04-12T07:19:38.289Z,63.53
2018-04-12T07:22:41.515Z,64.03
2018-04-12T07:25:44.711Z,63.93
2018-04-12T07:28:48.313Z,63.70
2018-04-12T07:31:51.495Z,66.80
2018-04-12T07:34:54.677Z,63.53
2018-04-12T07:37:57.890Z,68.63
2018-04-12T07:41:01.030Z,66.03
2018-04-12T07:44:04.989Z,63.80
2018-04-12T07:47:08.147Z,66.40
2018-04-12T07:50:12.109Z,61.57
2018-04-12T07:53:15.269Z,59.27
2018-04-12T07:56:18.463Z,65.43
2018-04-12T07:59:21.703Z,60.07
2018-04-12T08:02:24.885Z,62.23
2018-04-12T08:05:28.048Z,55.87
2018-04-12T08:08:31.239Z,52.40
2018-04-12T08:11:34.422Z,48.03
2018-04-12T08:14:38.383Z,57.50
2018-04-12T08:17:41.698Z,53.13
2018-04-12T08:20:44.881Z,58.87
2018-04-12T08:23:48.044Z,52.33
2018-04-12T08:26:51.236Z,49.67
2018-04-12T08:29:54.419Z,52.13
2018-04-12T08:32:57.647Z,56.50
2018-04-12T08:36:00.786Z,61.13
2018-04-12T08:39:04.765Z,51.90
2018-04-12T08:42:07.924Z,51.30
2018-04-12T08:45:11.110Z,56.60
2018-04-12T08:48:14.438Z,51.60
2018-04-12T08:51:17.589Z,56.23
2018-04-12T08:54:20.769Z,50.13
2018-04-12T08:57:23.967Z,51.97
2018-04-12T09:00:27.160Z,55.77
2018-04-12T09:03:30.356Z,51.73
2018-04-12T09:06:35.151Z,49.63
2018-04-12T09:09:38.342Z,50.67
2018-04-12T09:12:41.619Z,50.83
2018-04-12T09:15:44.778Z,51.83
2018-04-12T09:18:47.986Z,44.50
2018-04-12T09:21:51.174Z,43.13
2018-04-12T09:24:54.363Z,49.43
2018-04-12T09:27:58.304Z,44.97
2018-04-12T09:31:02.344Z,51.07
2018-04-12T09:34:05.500Z,50.53
2018-04-12T09:37:08.911Z,50.37
2018-04-12T09:40:12.088Z,44.63
2018-04-12T09:43:16.031Z,43.17
2018-04-12T09:46:19.192Z,43.73
2018-04-12T09:49:23.148Z,43.03
2018-04-12T09:52:26.279Z,34.50
2018-04-12T09:55:30.345Z,38.47
2018-04-12T09:58:33.507Z,36.53
2018-04-12T10:01:42.799Z,37.80
2018-04-12T10:04:53.227Z,36.00
2018-04-12T10:08:02.138Z,33.37
2018-04-12T10:11:05.308Z,32.33
2018-04-12T10:14:08.530Z,41.13
2018-04-12T10:17:11.769Z,34.27
2018-04-12T10:20:15.633Z,33.83
2018-04-12T10:23:19.540Z,35.03
2018-04-12T10:26:22.734Z,33.03
2018-04-12T10:29:25.965Z,31.00
2018-04-12T10:32:29.153Z,36.57
2018-04-12T10:35:32.319Z,36.03
2018-04-12T10:38:36.267Z,42.07
2018-04-12T10:41:39.431Z,33.27
2018-04-12T10:44:42.733Z,32.73
2018-04-12T10:47:45.887Z,29.70
2018-04-12T10:50:50.325Z,27.53
2018-04-12T10:53:54.243Z,33.53
2018-04-12T10:56:58.439Z,29.10
2018-04-12T11:00:01.648Z,30.83
2018-04-12T11:03:05.621Z,29.33
2018-04-12T11:06:08.805Z,27.23
2018-04-12T11:09:12.825Z,31.00
2018-04-12T11:12:16.031Z,29.87
2018-04-12T11:15:19.212Z,30.37
2018-04-12T11:18:23.231Z,30.97
2018-04-12T11:21:26.835Z,29.23
2018-04-12T11:24:30.017Z,25.87
2018-04-12T11:27:33.200Z,26.33
2018-04-12T11:30:36.371Z,28.43
2018-04-12T11:33:39.658Z,37.93
2018-04-12T11:36:43.585Z,31.43
2018-04-12T11:39:46.756Z,28.20
2018-04-12T11:42:50.709Z,30.37
2018-04-12T11:45:53.899Z,28.73
2018-04-12T11:48:57.101Z,24.50
2018-04-12T11:52:00.305Z,24.90
2018-04-12T11:55:03.541Z,30.93
2018-04-12T11:58:06.684Z,24.80
2018-04-12T12:01:09.855Z,23.27
2018-04-12T12:04:13.051Z,29.13
2018-04-12T12:07:16.265Z,24.87
2018-04-12T12:10:19.436Z,23.83
2018-04-12T12:13:22.600Z,22.40
2018-04-12T12:16:26.584Z,25.20
2018-04-12T12:19:29.733Z,22.23
2018-04-12T12:22:32.936Z,22.17
2018-04-12T12:25:36.936Z,22.20
2018-04-12T12:28:41.037Z,18.47
2018-04-12T12:31:44.980Z,19.70
2018-04-12T12:34:48.172Z,17.33
2018-04-12T12:37:57.338Z,20.57
2018-04-12T12:41:00.502Z,16.87
2018-04-12T12:44:03.659Z,21.80
2018-04-12T12:47:06.877Z,16.40
2018-04-12T12:50:10.879Z,15.70
2018-04-12T12:53:19.714Z,15.80
2018-04-12T12:56:29.631Z,14.87
2018-04-12T12:59:38.815Z,16.83
2018-04-12T13:02:42.910Z,16.47
2018-04-12T13:05:52.127Z,17.17
2018-04-12T13:08:55.303Z,16.07
2018-04-12T13:11:58.496Z,16.90
2018-04-12T13:15:07.539Z,16.10
2018-04-12T13:18:11.532Z,16.17
2018-04-12T13:21:22.093Z,14.73
2018-04-12T13:24:31.175Z,13.83
2018-04-12T13:27:34.368Z,20.50
2018-04-12T13:30:44.642Z,12.73
2018-04-12T13:33:47.835Z,13.00
2018-04-12T13:36:51.036Z,12.27
2018-04-12T13:39:54.197Z,14.03
2018-04-12T13:43:03.126Z,18.87
2018-04-12T13:46:06.317Z,13.67
2018-04-12T13:49:15.457Z,13.10
2018-04-12T13:52:29.078Z,15.30
2018-04-12T13:55:32.347Z,11.83
2018-04-12T13:58:35.502Z,15.00
2018-04-12T14:01:44.635Z,13.83
2018-04-12T14:04:48.555Z,11.27
2018-04-12T14:07:52.596Z,13.17
2018-04-12T14:10:55.766Z,14.20
2018-04-12T14:14:04.881Z,10.63
2018-04-12T14:17:08.845Z,12.73
2018-04-12T14:20:12.002Z,14.03
2018-04-12T14:23:15.191Z,10.13
2018-04-12T14:26:18.381Z,13.30
2018-04-12T14:29:21.577Z,11.03
2018-04-12T14:32:24.919Z,13.17
2018-04-12T14:35:28.080Z,13.20
2018-04-12T14:38:37.164Z,9.43
2018-04-12T14:41:40.428Z,11.20
2018-04-12T14:44:43.589Z,10.40
2018-04-12T14:47:52.764Z,9.30
2018-04-12T14:50:55.967Z,10.60
2018-04-12T14:54:05.100Z,10.27
2018-04-12T14:57:20.299Z,9.73
2018-04-12T15:00:23.463Z,12.67
2018-04-12T15:03:26.690Z,7.10
2018-04-12T15:06:29.831Z,11.47
2018-04-12T15:09:33.007Z,6.70
2018-04-12T15:12:36.661Z,14.13
2018-04-12T15:15:40.795Z,9.23
2018-04-12T15:18:44.787Z,6.50
2018-04-12T15:21:47.950Z,6.23
2018-04-12T15:24:51.115Z,8.43
2018-04-12T15:27:54.296Z,7.93
2018-04-12T15:30:58.238Z,8.80
2018-04-12T15:34:01.432Z,10.60
2018-04-12T15:37:04.750Z,6.77
2018-04-12T15:40:13.786Z,11.00
2018-04-12T15:43:16.919Z,10.60
2018-04-12T15:46:20.904Z,9.83
2018-04-12T15:49:24.042Z,7.97
2018-04-12T15:52:27.961Z,11.00
2018-04-12T15:55:43.210Z,12.40
2018-04-12T15:58:52.901Z,16.13
2018-04-12T16:01:56.147Z,20.83
2018-04-12T16:05:00.091Z,36.73
2018-04-12T16:08:04.184Z,9.97
2018-04-12T16:11:08.142Z,18.20
2018-04-12T16:14:11.302Z,14.93
2018-04-12T16:17:21.632Z,24.60
2018-04-12T16:20:30.634Z,16.70
2018-04-12T16:23:33.774Z,10.40
2018-04-12T16:26:43.089Z,11.93
2018-04-12T16:29:46.953Z,8.30
2018-04-12T16:32:50.106Z,10.43
2018-04-12T16:35:53.337Z,15.90
2018-04-12T16:39:02.297Z,7.03
2018-04-12T16:42:05.461Z,11.67
2018-04-12T16:45:14.567Z,8.87
2018-04-12T16:48:18.528Z,8.30
2018-04-12T16:51:21.721Z,7.93
2018-04-12T16:54:24.864Z,11.23
2018-04-12T16:57:28.078Z,8.93
2018-04-12T17:00:37.182Z,9.03
2018-04-12T17:03:46.318Z,8.70
2018-04-12T17:06:55.476Z,10.03
2018-04-12T17:09:59.421Z,8.90
2018-04-12T17:13:02.694Z,9.73
2018-04-12T17:16:11.692Z,19.33
2018-04-12T17:19:14.898Z,9.50
2018-04-12T17:22:29.758Z,12.37
2018-04-12T17:25:32.945Z,11.03
2018-04-12T17:28:36.899Z,11.50
2018-04-12T17:31:40.299Z,10.97
2018-04-12T17:34:43.492Z,8.23
2018-04-12T17:37:46.667Z,9.80
2018-04-12T17:40:50.599Z,10.57
2018-04-12T17:43:53.787Z,8.97
2018-04-12T17:46:57.753Z,8.90
2018-04-12T17:50:06.925Z,9.03
2018-04-12T17:53:10.162Z,10.47
2018-04-12T17:56:13.372Z,16.27
2018-04-12T17:59:22.473Z,12.77
2018-04-12T18:02:31.498Z,17.23
2018-04-12T18:05:46.395Z,16.37
2018-04-12T18:08:49.615Z,21.00
2018-04-12T18:11:52.798Z,13.60
2018-04-12T18:15:01.890Z,12.67
2018-04-12T18:18:11.137Z,14.33
2018-04-12T18:21:14.298Z,10.70
2018-04-12T18:24:18.248Z,62.33
2018-04-12T18:27:21.411Z,21.70
2018-04-12T18:30:24.635Z,27.67
2018-04-12T18:33:39.437Z,19.17
2018-04-12T18:36:43.421Z,14.90
2018-04-12T18:39:52.608Z,13.13
2018-04-12T18:42:55.811Z,10.97
2018-04-12T18:46:04.955Z,19.40
2018-04-12T18:49:08.931Z,14.40
2018-04-12T18:52:18.714Z,11.37
2018-04-12T18:55:27.867Z,12.57
2018-04-12T18:58:31.064Z,12.07
2018-04-12T19:01:34.239Z,11.13
2018-04-12T19:04:43.156Z,10.97
2018-04-12T19:07:58.117Z,10.50
2018-04-12T19:11:08.182Z,8.73
2018-04-12T19:14:11.403Z,10.20
2018-04-12T19:17:14.576Z,11.57
2018-04-12T19:20:17.830Z,16.80
2018-04-12T19:23:26.949Z,11.67
2018-04-12T19:26:41.970Z,10.83
2018-04-12T19:29:45.139Z,14.93
2018-04-12T19:32:49.105Z,14.23
2018-04-12T19:35:52.328Z,10.93
2018-04-12T19:38:55.505Z,9.50
2018-04-12T19:41:59.995Z,13.17
2018-04-12T19:45:03.301Z,11.43
2018-04-12T19:48:06.487Z,12.77
2018-04-12T19:51:09.708Z,9.57
2018-04-12T19:54:18.683Z,7.07
2018-04-12T19:57:22.030Z,8.23
2018-04-12T20:00:25.174Z,8.07
2018-04-12T20:03:34.101Z,11.77
2018-04-12T20:06:37.265Z,12.37
2018-04-12T20:09:46.342Z,9.30
2018-04-12T20:12:49.520Z,9.20
2018-04-12T20:15:58.808Z,13.23
2018-04-12T20:19:01.983Z,9.57
2018-04-12T20:22:05.673Z,7.03
2018-04-12T20:25:14.795Z,8.67
2018-04-12T20:28:18.763Z,8.13
2018-04-12T20:31:21.946Z,10.00
2018-04-12T20:34:30.705Z,11.10
2018-04-12T20:37:33.867Z,10.00
2018-04-12T20:40:42.778Z,14.57
2018-04-12T20:43:52.029Z,11.17
2018-04-12T20:46:55.222Z,11.00
2018-04-12T20:50:04.251Z,10.27
2018-04-12T20:53:13.248Z,11.77
2018-04-12T20:56:17.207Z,10.33
2018-04-12T20:59:21.929Z,5.30
2018-04-12T21:02:25.070Z,6.90
2018-04-12T21:05:35.052Z,4.83
2018-04-12T21:08:44.235Z,4.60
2018-04-12T21:11:53.303Z,3.00
2018-04-12T21:15:02.521Z,2.70
2018-04-12T21:18:05.707Z,2.57
2018-04-12T21:21:16.587Z,2.33
2018-04-12T21:24:20.535Z,7.70
2018-04-12T21:27:23.737Z,1.30
2018-04-12T21:30:26.904Z,3.90
2018-04-12T21:33:30.120Z,3.63
2018-04-12T21:36:33.293Z,3.23
2018-04-12T21:39:42.416Z,3.00
2018-04-12T21:42:46.350Z,4.30
2018-04-12T21:45:55.390Z,2.53
2018-04-12T21:48:58.921Z,4.37
2018-04-12T21:52:07.961Z,1.20
2018-04-12T21:55:11.130Z,3.10
2018-04-12T21:58:14.288Z,3.07
2018-04-12T22:01:23.440Z,2.53
2018-04-12T22:04:26.594Z,3.73
2018-04-12T22:07:29.794Z,7.07
2018-04-12T22:10:32.958Z,2.63
2018-04-12T22:13:36.146Z,3.87
2018-04-12T22:16:39.340Z,4.67
2018-04-12T22:19:42.743Z,3.17
2018-04-12T22:22:45.895Z,3.70
2018-04-12T22:25:55.321Z,3.97
2018-04-12T22:28:58.513Z,3.73
2018-04-12T22:32:07.487Z,1.70
2018-04-12T22:35:16.311Z,6.13
2018-04-12T22:38:19.478Z,5.63
2018-04-12T22:41:22.648Z,3.00
2018-04-12T22:44:26.615Z,1.73
2018-04-12T22:47:30.218Z,5.73
2018-04-12T22:50:45.352Z,13.50
2018-04-12T22:53:49.319Z,3.27
2018-04-12T22:56:52.482Z,4.90
2018-04-12T22:59:55.702Z,6.80
2018-04-12T23:02:58.888Z,5.20
2018-04-12T23:06:02.864Z,4.27
2018-04-12T23:09:06.060Z,5.07
2018-04-12T23:12:15.123Z,6.17
2018-04-12T23:15:24.015Z,7.83
2018-04-12T23:18:27.926Z,5.00
2018-04-12T23:21:31.118Z,9.33
2018-04-12T23:24:35.857Z,6.73
2018-04-12T23:27:50.710Z,5.60
2018-04-12T23:30:53.913Z,3.60
2018-04-12T23:33:57.121Z,5.03
2018-04-12T23:37:06.842Z,5.47
2018-04-12T23:40:16.542Z,2.77
2018-04-12T23:43:19.700Z,9.60
2018-04-12T23:46:22.904Z,5.37
2018-04-12T23:49:31.854Z,5.00
2018-04-12T23:52:35.033Z,3.60
2018-04-12T23:55:38.182Z,3.13
2018-04-12T23:58:42.287Z,4.90
